createdAt,value
2023-01-01T00:00:04.617Z,23.23
2023-01-01T00:00:36.196Z,23.25
2023-01-01T00:01:07.819Z,23.23
2023-01-01T00:01:39.965Z,23.24
2023-01-01T00:02:11.610Z,23.23
2023-01-01T00:02:43.047Z,23.25
2023-01-01T00:03:14.496Z,23.22
2023-01-01T00:03:45.941Z,23.21
2023-01-01T00:04:17.596Z,23.19
2023-01-01T00:04:49.211Z,23.20
2023-01-01T00:05:20.617Z,23.21
2023-01-01T00:05:52.009Z,23.20
2023-01-01T00:06:23.434Z,23.22
2023-01-01T00:06:54.887Z,23.20
2023-01-01T00:07:26.299Z,23.22
2023-01-01T00:08:04.344Z,23.21
2023-01-01T00:08:36.610Z,23.24
2023-01-01T00:09:08.161Z,23.22
2023-01-01T00:09:39.720Z,23.22
2023-01-01T00:10:11.102Z,23.23
2023-01-01T00:10:42.466Z,23.22
2023-01-01T00:11:13.855Z,23.22
2023-01-01T00:11:45.312Z,23.22
2023-01-01T00:12:16.761Z,23.24
2023-01-01T00:12:48.215Z,23.24
2023-01-01T00:13:19.709Z,23.23
2023-01-01T00:13:51.191Z,23.23
2023-01-01T00:14:22.643Z,23.23
2023-01-01T00:14:54.053Z,23.22
2023-01-01T00:15:25.610Z,23.25
2023-01-01T00:15:57.075Z,23.23
2023-01-01T00:16:28.627Z,23.25
2023-01-01T00:17:00.133Z,23.25
2023-01-01T00:17:31.649Z,23.23
2023-01-01T00:18:03.086Z,23.22
2023-01-01T00:18:34.799Z,23.23
2023-01-01T00:19:06.281Z,23.22
2023-01-01T00:19:37.778Z,23.22
2023-01-01T00:20:09.242Z,23.23
2023-01-01T00:20:40.736Z,23.21
2023-01-01T00:21:12.191Z,23.22
2023-01-01T00:21:43.648Z,23.22
2023-01-01T00:22:52.865Z,23.23
2023-01-01T00:23:06.451Z,23.23
2023-01-01T00:23:37.937Z,23.21
2023-01-01T00:24:09.422Z,23.22
2023-01-01T00:24:40.950Z,23.22
2023-01-01T00:25:12.377Z,23.22
2023-01-01T00:25:43.868Z,23.21
2023-01-01T00:26:15.332Z,23.22
2023-01-01T00:26:46.739Z,23.24
2023-01-01T00:27:18.211Z,23.24
2023-01-01T00:27:49.603Z,23.24
2023-01-01T00:28:21.075Z,23.23
2023-01-01T00:28:52.544Z,23.22
2023-01-01T00:29:24.171Z,23.23
2023-01-01T00:29:55.580Z,23.22
2023-01-01T00:30:27.006Z,23.20
2023-01-01T00:30:58.534Z,23.20
2023-01-01T00:31:30.020Z,23.21
2023-01-01T00:32:01.553Z,23.21
2023-01-01T00:32:33.202Z,23.21
2023-01-01T00:33:04.589Z,23.23
2023-01-01T00:33:36.585Z,23.23
2023-01-01T00:34:08.005Z,23.24
2023-01-01T00:34:39.425Z,23.22
2023-01-01T00:35:10.812Z,23.22
2023-01-01T00:35:42.321Z,23.21
2023-01-01T00:36:13.804Z,23.21
2023-01-01T00:36:45.237Z,23.23
2023-01-01T00:37:16.701Z,23.20
2023-01-01T00:37:48.105Z,23.22
2023-01-01T00:38:19.618Z,23.25
2023-01-01T00:38:51.113Z,23.25
2023-01-01T00:39:22.507Z,23.17
2023-01-01T00:39:53.936Z,23.22
2023-01-01T00:40:25.398Z,23.23
2023-01-01T00:40:57.636Z,23.22
2023-01-01T00:41:29.077Z,23.22
2023-01-01T00:42:00.554Z,23.22
2023-01-01T00:42:31.987Z,23.22
2023-01-01T00:43:03.396Z,23.21
2023-01-01T00:43:34.833Z,23.22
2023-01-01T00:44:06.260Z,23.23
2023-01-01T00:44:37.663Z,23.22
2023-01-01T00:45:09.217Z,23.20
2023-01-01T00:45:41.072Z,23.20
2023-01-01T00:46:12.671Z,23.21
2023-01-01T00:46:44.120Z,23.20
2023-01-01T00:47:15.670Z,23.22
2023-01-01T00:47:47.156Z,23.22
2023-01-01T00:48:18.579Z,23.22
2023-01-01T00:48:50.075Z,23.21
2023-01-01T00:49:21.484Z,23.23
2023-01-01T00:49:52.896Z,23.22
2023-01-01T00:50:24.357Z,23.23
2023-01-01T00:50:55.773Z,23.21
2023-01-01T00:51:30.430Z,23.21
2023-01-01T00:52:04.537Z,23.22
2023-01-01T00:52:36.091Z,23.21
2023-01-01T00:53:07.544Z,23.23
2023-01-01T00:53:38.999Z,23.23
2023-01-01T00:54:10.399Z,23.22
2023-01-01T00:54:41.829Z,23.22
2023-01-01T00:55:13.283Z,23.23
2023-01-01T00:55:44.704Z,23.21
2023-01-01T00:56:16.156Z,23.22
2023-01-01T00:56:47.764Z,23.22
2023-01-01T00:57:19.197Z,23.21
2023-01-01T00:57:50.681Z,23.20
2023-01-01T00:58:22.356Z,23.21
2023-01-01T00:59:00.756Z,23.22
2023-01-01T00:59:33.456Z,23.20
2023-01-01T01:00:05.175Z,23.23
2023-01-01T01:00:36.686Z,23.22
2023-01-01T01:01:08.147Z,23.21
2023-01-01T01:01:39.718Z,23.21
2023-01-01T01:02:11.264Z,23.22
2023-01-01T01:02:43.083Z,23.22
2023-01-01T01:03:14.640Z,23.22
2023-01-01T01:03:46.149Z,23.18
2023-01-01T01:04:17.649Z,23.20
2023-01-01T01:04:49.259Z,23.17
2023-01-01T01:05:20.691Z,23.21
2023-01-01T01:05:52.181Z,23.20
2023-01-01T01:06:23.589Z,23.22
2023-01-01T01:06:54.991Z,23.17
2023-01-01T01:07:26.434Z,23.19
2023-01-01T01:07:57.842Z,23.19
2023-01-01T01:08:31.316Z,23.21
2023-01-01T01:09:02.911Z,23.22
2023-01-01T01:09:34.564Z,23.20
2023-01-01T01:10:05.949Z,23.20
2023-01-01T01:10:37.527Z,23.21
2023-01-01T01:11:08.977Z,23.15
2023-01-01T01:11:40.405Z,23.18
2023-01-01T01:12:18.691Z,23.21
2023-01-01T01:12:50.580Z,23.25
2023-01-01T01:13:22.077Z,23.22
2023-01-01T01:13:53.547Z,23.19
2023-01-01T01:14:24.969Z,23.20
2023-01-01T01:14:56.452Z,23.18
2023-01-01T01:15:27.864Z,23.19
2023-01-01T01:15:59.288Z,23.20
2023-01-01T01:16:30.801Z,23.20
2023-01-01T01:17:02.365Z,23.20
2023-01-01T01:17:33.934Z,23.19
2023-01-01T01:18:05.357Z,23.18
2023-01-01T01:18:36.852Z,23.19
2023-01-01T01:19:08.280Z,23.17
2023-01-01T01:19:39.668Z,23.18
2023-01-01T01:20:11.222Z,23.21
2023-01-01T01:20:42.655Z,23.21
2023-01-01T01:21:14.107Z,23.22
2023-01-01T01:21:45.606Z,23.20
2023-01-01T01:22:17.087Z,23.19
2023-01-01T01:22:48.510Z,23.22
2023-01-01T01:23:19.950Z,23.22
2023-01-01T01:23:51.372Z,23.21
2023-01-01T01:24:22.876Z,23.22
2023-01-01T01:24:54.315Z,23.22
2023-01-01T01:25:25.700Z,23.21
2023-01-01T01:25:57.172Z,23.21
2023-01-01T01:26:28.617Z,23.19
2023-01-01T01:27:00.106Z,23.16
2023-01-01T01:27:31.524Z,23.19
2023-01-01T01:28:02.929Z,23.19
2023-01-01T01:28:34.372Z,23.16
2023-01-01T01:29:05.890Z,23.15
2023-01-01T01:29:37.313Z,23.16
2023-01-01T01:30:08.829Z,23.15
2023-01-01T01:30:40.315Z,23.17
2023-01-01T01:31:11.868Z,23.20
2023-01-01T01:31:43.331Z,23.17
2023-01-01T01:32:14.767Z,23.17
2023-01-01T01:32:46.265Z,23.17
2023-01-01T01:33:17.704Z,23.17
2023-01-01T01:33:49.116Z,23.19
2023-01-01T01:34:25.719Z,23.20
2023-01-01T01:34:59.148Z,23.17
2023-01-01T01:35:30.644Z,23.20
2023-01-01T01:36:02.069Z,23.17
2023-01-01T01:36:33.508Z,23.16
2023-01-01T01:37:04.954Z,23.14
2023-01-01T01:37:36.399Z,23.12
2023-01-01T01:38:08.125Z,23.16
2023-01-01T01:38:39.527Z,23.16
2023-01-01T01:39:10.991Z,23.11
2023-01-01T01:39:42.416Z,23.16
2023-01-01T01:40:13.855Z,23.17
2023-01-01T01:40:45.363Z,23.21
2023-01-01T01:41:27.239Z,23.18
2023-01-01T01:41:59.570Z,23.24
2023-01-01T01:42:30.946Z,23.21
2023-01-01T01:43:02.431Z,23.21
2023-01-01T01:43:33.857Z,23.18
2023-01-01T01:44:05.295Z,23.19
2023-01-01T01:44:36.716Z,23.15
2023-01-01T01:45:08.184Z,23.20
2023-01-01T01:45:39.709Z,23.21
2023-01-01T01:46:11.219Z,23.21
2023-01-01T01:46:42.840Z,23.16
2023-01-01T01:47:14.276Z,23.15
2023-01-01T01:47:45.805Z,23.19
2023-01-01T01:48:17.325Z,23.22
2023-01-01T01:48:48.781Z,23.21
2023-01-01T01:49:20.176Z,23.22
2023-01-01T01:49:51.607Z,23.24
2023-01-01T01:50:23.067Z,23.23
2023-01-01T01:50:54.521Z,23.21
2023-01-01T01:51:25.973Z,23.24
2023-01-01T01:51:57.386Z,23.20
2023-01-01T01:52:28.979Z,23.19
2023-01-01T01:53:00.388Z,23.17
2023-01-01T01:53:31.891Z,23.15
2023-01-01T01:54:03.305Z,23.20
2023-01-01T01:54:34.738Z,23.21
2023-01-01T01:55:06.160Z,23.19
2023-01-01T01:55:37.565Z,23.21
2023-01-01T01:56:09.234Z,23.22
2023-01-01T01:56:40.765Z,23.22
2023-01-01T01:57:12.217Z,23.21
2023-01-01T01:57:43.672Z,23.23
2023-01-01T01:58:15.068Z,23.21
2023-01-01T01:58:46.606Z,23.19
2023-01-01T01:59:18.235Z,23.20
2023-01-01T01:59:49.676Z,23.20
2023-01-01T02:00:21.120Z,23.21
2023-01-01T02:00:52.520Z,23.21
2023-01-01T02:01:23.963Z,23.20
2023-01-01T02:01:55.575Z,23.20
2023-01-01T02:02:27.145Z,23.19
2023-01-01T02:02:58.756Z,23.20
2023-01-01T02:03:30.219Z,23.20
2023-01-01T02:04:01.746Z,23.21
2023-01-01T02:04:33.166Z,23.22
2023-01-01T02:05:04.642Z,23.20
2023-01-01T02:05:36.126Z,23.18
2023-01-01T02:06:07.654Z,23.18
2023-01-01T02:06:39.190Z,23.15
2023-01-01T02:07:10.702Z,23.17
2023-01-01T02:07:42.097Z,23.20
2023-01-01T02:08:13.577Z,23.19
2023-01-01T02:08:44.953Z,23.17
2023-01-01T02:09:16.415Z,23.19
2023-01-01T02:09:47.877Z,23.16
2023-01-01T02:10:19.277Z,23.17
2023-01-01T02:10:50.780Z,23.20
2023-01-01T02:11:22.320Z,23.20
2023-01-01T02:11:53.790Z,23.19
2023-01-01T02:12:25.175Z,23.19
2023-01-01T02:12:56.659Z,23.17
2023-01-01T02:13:28.129Z,23.22
2023-01-01T02:13:59.547Z,23.23
2023-01-01T02:14:31.085Z,23.20
2023-01-01T02:15:05.490Z,23.19
2023-01-01T02:15:37.060Z,23.19
2023-01-01T02:16:08.576Z,23.19
2023-01-01T02:16:40.056Z,23.16
2023-01-01T02:17:11.478Z,23.19
2023-01-01T02:17:42.889Z,23.17
2023-01-01T02:18:14.384Z,23.20
2023-01-01T02:18:45.816Z,23.18
2023-01-01T02:19:17.229Z,23.17
2023-01-01T02:19:48.739Z,23.19
2023-01-01T02:20:20.148Z,23.21
2023-01-01T02:20:51.593Z,23.20
2023-01-01T02:21:23.047Z,23.18
2023-01-01T02:21:54.552Z,23.21
2023-01-01T02:22:26.010Z,23.19
2023-01-01T02:23:03.921Z,23.22
2023-01-01T02:23:35.737Z,23.23
2023-01-01T02:24:07.204Z,23.21
2023-01-01T02:24:38.652Z,23.19
2023-01-01T02:25:10.357Z,23.16
2023-01-01T02:25:41.899Z,23.16
2023-01-01T02:26:13.321Z,23.20
2023-01-01T02:26:44.825Z,23.19
2023-01-01T02:27:16.230Z,23.20
2023-01-01T02:27:47.661Z,23.18
2023-01-01T02:28:19.064Z,23.19
2023-01-01T02:28:50.495Z,23.19
2023-01-01T02:29:21.949Z,23.16
2023-01-01T02:29:53.390Z,23.18
2023-01-01T02:30:24.940Z,23.18
2023-01-01T02:30:56.586Z,23.20
2023-01-01T02:31:28.093Z,23.19
2023-01-01T02:31:59.654Z,23.20
2023-01-01T02:32:31.183Z,23.21
2023-01-01T02:33:02.626Z,23.22
2023-01-01T02:33:34.020Z,23.19
2023-01-01T02:34:05.452Z,23.19
2023-01-01T02:34:36.857Z,23.16
2023-01-01T02:35:08.277Z,23.15
2023-01-01T02:35:39.723Z,23.16
2023-01-01T02:36:11.191Z,23.16
2023-01-01T02:36:42.680Z,23.17
2023-01-01T02:37:14.159Z,23.19
2023-01-01T02:37:45.629Z,23.16
2023-01-01T02:38:17.033Z,23.13
2023-01-01T02:38:48.571Z,23.05
2023-01-01T02:39:20.013Z,23.10
2023-01-01T02:39:51.519Z,23.13
2023-01-01T02:40:22.970Z,23.14
2023-01-01T02:40:54.480Z,23.17
2023-01-01T02:41:25.930Z,23.16
2023-01-01T02:41:57.403Z,23.22
2023-01-01T02:42:28.837Z,23.20
2023-01-01T02:43:00.239Z,23.19
2023-01-01T02:43:31.663Z,23.16
2023-01-01T02:44:33.335Z,23.14
2023-01-01T02:45:04.772Z,23.15
2023-01-01T02:45:36.146Z,23.16
2023-01-01T02:46:07.739Z,23.13
2023-01-01T02:46:39.369Z,23.17
2023-01-01T02:47:10.792Z,23.20
2023-01-01T02:47:42.177Z,23.19
2023-01-01T02:48:13.628Z,23.21
2023-01-01T02:48:45.051Z,23.21
2023-01-01T02:49:16.645Z,23.22
2023-01-01T02:49:48.078Z,23.21
2023-01-01T02:50:19.524Z,23.24
2023-01-01T02:50:50.988Z,23.25
2023-01-01T02:51:22.430Z,23.24
2023-01-01T02:51:53.943Z,23.23
2023-01-01T02:52:25.353Z,23.23
2023-01-01T02:52:56.741Z,23.22
2023-01-01T02:53:28.259Z,23.23
2023-01-01T02:53:59.695Z,23.23
2023-01-01T02:54:31.150Z,23.24
2023-01-01T02:55:02.580Z,23.20
2023-01-01T02:55:34.053Z,23.20
2023-01-01T02:56:05.585Z,23.21
2023-01-01T02:56:37.099Z,23.19
2023-01-01T02:57:08.494Z,23.21
2023-01-01T02:57:39.920Z,23.22
2023-01-01T02:58:11.425Z,23.23
2023-01-01T02:58:42.817Z,23.24
2023-01-01T02:59:14.217Z,23.19
2023-01-01T02:59:45.645Z,23.20
2023-01-01T03:00:17.160Z,23.21
2023-01-01T03:00:48.671Z,23.22
2023-01-01T03:01:20.268Z,23.18
2023-01-01T03:01:51.964Z,23.21
2023-01-01T03:02:23.501Z,23.21
2023-01-01T03:02:55.291Z,23.19
2023-01-01T03:03:26.851Z,23.20
2023-01-01T03:03:58.360Z,23.20
2023-01-01T03:04:29.791Z,23.20
2023-01-01T03:05:01.294Z,23.20
2023-01-01T03:05:32.710Z,23.19
2023-01-01T03:06:04.152Z,23.16
2023-01-01T03:06:35.567Z,23.19
2023-01-01T03:07:07.191Z,23.21
2023-01-01T03:07:38.636Z,23.23
2023-01-01T03:08:10.039Z,23.24
2023-01-01T03:08:41.495Z,23.24
2023-01-01T03:09:12.928Z,23.21
2023-01-01T03:09:44.428Z,23.21
2023-01-01T03:10:15.975Z,23.22
2023-01-01T03:10:47.405Z,23.22
2023-01-01T03:11:18.828Z,23.20
2023-01-01T03:11:50.316Z,23.22
2023-01-01T03:12:21.831Z,23.21
2023-01-01T03:12:53.321Z,23.21
2023-01-01T03:13:24.770Z,23.19
2023-01-01T03:13:56.202Z,23.22
2023-01-01T03:14:27.651Z,23.22
2023-01-01T03:14:59.078Z,23.19
2023-01-01T03:15:30.602Z,23.18
2023-01-01T03:16:02.093Z,23.17
2023-01-01T03:16:33.581Z,23.17
2023-01-01T03:17:05.024Z,23.16
2023-01-01T03:17:36.544Z,23.19
2023-01-01T03:18:07.978Z,23.17
2023-01-01T03:18:39.415Z,23.20
2023-01-01T03:19:11.095Z,23.20
2023-01-01T03:19:42.682Z,23.21
2023-01-01T03:20:14.112Z,23.19
2023-01-01T03:20:45.626Z,23.19
2023-01-01T03:21:47.175Z,23.19
2023-01-01T03:22:18.660Z,23.19
2023-01-01T03:22:50.166Z,23.18
2023-01-01T03:23:21.627Z,23.16
2023-01-01T03:23:53.092Z,23.17
2023-01-01T03:24:24.526Z,23.17
2023-01-01T03:24:55.990Z,23.16
2023-01-01T03:25:27.437Z,23.14
2023-01-01T03:25:58.872Z,23.15
2023-01-01T03:26:30.324Z,23.16
2023-01-01T03:27:01.751Z,23.17
2023-01-01T03:27:33.192Z,23.19
2023-01-01T03:28:04.707Z,23.17
2023-01-01T03:28:36.305Z,23.17
2023-01-01T03:29:07.728Z,23.17
2023-01-01T03:29:39.186Z,23.19
2023-01-01T03:30:10.611Z,23.21
2023-01-01T03:30:42.063Z,23.20
2023-01-01T03:31:13.454Z,23.22
2023-01-01T03:31:44.905Z,23.21
2023-01-01T03:32:16.332Z,23.19
2023-01-01T03:32:47.820Z,23.22
2023-01-01T03:33:19.363Z,23.21
2023-01-01T03:33:50.767Z,23.20
2023-01-01T03:34:22.213Z,23.21
2023-01-01T03:34:53.718Z,23.21
2023-01-01T03:35:25.111Z,23.19
2023-01-01T03:35:56.583Z,23.16
2023-01-01T03:36:28.003Z,23.16
2023-01-01T03:36:59.442Z,23.16
2023-01-01T03:37:30.857Z,23.15
2023-01-01T03:38:02.324Z,23.15
2023-01-01T03:38:33.823Z,23.16
2023-01-01T03:39:05.257Z,23.16
2023-01-01T03:39:36.715Z,23.16
2023-01-01T03:40:08.130Z,23.16
2023-01-01T03:40:39.523Z,23.19
2023-01-01T03:41:10.922Z,23.19
2023-01-01T03:41:42.283Z,23.18
2023-01-01T03:42:13.916Z,23.17
2023-01-01T03:42:45.319Z,23.17
2023-01-01T03:43:16.718Z,23.15
2023-01-01T03:43:48.184Z,23.17
2023-01-01T03:44:19.600Z,23.19
2023-01-01T03:44:51.100Z,23.17
2023-01-01T03:45:22.506Z,23.15
2023-01-01T03:45:53.944Z,23.16
2023-01-01T03:46:25.416Z,23.15
2023-01-01T03:46:56.978Z,23.17
2023-01-01T03:47:28.443Z,23.19
2023-01-01T03:47:59.842Z,23.18
2023-01-01T03:48:31.295Z,23.17
2023-01-01T03:49:04.448Z,23.17
2023-01-01T03:49:36.082Z,23.15
2023-01-01T03:50:07.547Z,23.16
2023-01-01T03:50:38.997Z,23.15
2023-01-01T03:51:10.534Z,23.15
2023-01-01T03:51:41.985Z,23.14
2023-01-01T03:52:13.420Z,23.14
2023-01-01T03:52:44.849Z,23.16
2023-01-01T03:53:16.287Z,23.17
2023-01-01T03:53:47.697Z,23.18
2023-01-01T03:54:19.129Z,23.17
2023-01-01T03:54:56.733Z,23.16
2023-01-01T03:55:30.054Z,23.15
2023-01-01T03:56:01.506Z,23.16
2023-01-01T03:56:32.933Z,23.17
2023-01-01T03:57:04.349Z,23.15
2023-01-01T03:57:35.871Z,23.13
2023-01-01T03:58:07.276Z,23.13
2023-01-01T03:58:38.714Z,23.14
2023-01-01T03:59:10.160Z,23.14
2023-01-01T03:59:41.691Z,23.14
2023-01-01T04:00:13.096Z,23.16
2023-01-01T04:00:44.519Z,23.13
2023-01-01T04:01:16.070Z,23.15
2023-01-01T04:01:47.597Z,23.11
2023-01-01T04:02:19.155Z,23.14
2023-01-01T04:02:50.570Z,23.15
2023-01-01T04:03:21.994Z,23.16
2023-01-01T04:03:53.447Z,23.15
2023-01-01T04:04:24.867Z,23.15
2023-01-01T04:04:56.367Z,23.15
2023-01-01T04:05:27.792Z,23.15
2023-01-01T04:05:59.276Z,23.19
2023-01-01T04:06:30.732Z,23.17
2023-01-01T04:07:14.295Z,23.17
2023-01-01T04:08:16.930Z,23.18
2023-01-01T04:08:48.281Z,23.17
2023-01-01T04:09:19.719Z,23.14
2023-01-01T04:09:51.137Z,23.15
2023-01-01T04:10:22.596Z,23.19
2023-01-01T04:10:54.020Z,23.16
2023-01-01T04:11:25.472Z,23.17
2023-01-01T04:11:56.983Z,23.17
2023-01-01T04:12:28.437Z,23.16
2023-01-01T04:12:59.893Z,23.16
2023-01-01T04:13:31.301Z,23.16
2023-01-01T04:14:02.855Z,23.16
2023-01-01T04:14:34.260Z,23.19
2023-01-01T04:15:05.709Z,23.17
2023-01-01T04:15:37.176Z,23.16
2023-01-01T04:16:08.640Z,23.17
2023-01-01T04:16:40.187Z,23.17
2023-01-01T04:17:11.687Z,23.16
2023-01-01T04:17:43.163Z,23.16
2023-01-01T04:18:14.641Z,23.14
2023-01-01T04:18:46.033Z,23.13
2023-01-01T04:19:17.442Z,23.13
2023-01-01T04:19:53.237Z,23.14
2023-01-01T04:20:26.515Z,23.16
2023-01-01T04:20:57.955Z,23.16
2023-01-01T04:21:29.353Z,23.11
2023-01-01T04:22:00.828Z,23.13
2023-01-01T04:22:32.273Z,23.13
2023-01-01T04:23:03.771Z,23.11
2023-01-01T04:23:35.315Z,23.14
2023-01-01T04:24:06.755Z,23.17
2023-01-01T04:24:38.245Z,23.16
2023-01-01T04:25:09.679Z,23.15
2023-01-01T04:25:41.073Z,23.14
2023-01-01T04:26:12.590Z,23.14
2023-01-01T04:26:43.961Z,23.11
2023-01-01T04:27:15.440Z,23.15
2023-01-01T04:27:46.925Z,23.15
2023-01-01T04:28:18.442Z,23.16
2023-01-01T04:28:49.933Z,23.13
2023-01-01T04:29:21.348Z,23.14
2023-01-01T04:29:52.785Z,23.13
2023-01-01T04:30:24.249Z,23.10
2023-01-01T04:31:25.868Z,23.13
2023-01-01T04:31:57.222Z,23.15
2023-01-01T04:32:28.667Z,23.11
2023-01-01T04:33:00.167Z,23.12
2023-01-01T04:33:31.559Z,23.14
2023-01-01T04:34:02.963Z,23.15
2023-01-01T04:34:34.395Z,23.14
2023-01-01T04:35:05.909Z,23.10
2023-01-01T04:35:37.429Z,23.13
2023-01-01T04:36:08.886Z,23.16
2023-01-01T04:36:40.305Z,23.17
2023-01-01T04:37:13.546Z,23.15
2023-01-01T04:37:45.265Z,23.19
2023-01-01T04:38:16.678Z,23.13
2023-01-01T04:38:48.078Z,23.14
2023-01-01T04:39:19.535Z,23.15
2023-01-01T04:39:51.078Z,23.15
2023-01-01T04:40:22.491Z,23.15
2023-01-01T04:40:53.911Z,23.11
2023-01-01T04:41:25.441Z,23.14
2023-01-01T04:41:56.993Z,23.13
2023-01-01T04:42:28.423Z,23.13
2023-01-01T04:42:59.859Z,23.12
2023-01-01T04:43:31.302Z,23.10
2023-01-01T04:44:02.717Z,23.11
2023-01-01T04:44:34.173Z,23.13
2023-01-01T04:45:05.632Z,23.16
2023-01-01T04:45:37.091Z,23.15
2023-01-01T04:46:08.722Z,23.13
2023-01-01T04:46:40.193Z,23.13
2023-01-01T04:47:11.648Z,23.15
2023-01-01T04:47:43.185Z,23.14
2023-01-01T04:48:14.628Z,23.16
2023-01-01T04:48:46.149Z,23.12
2023-01-01T04:49:17.567Z,23.10
2023-01-01T04:49:48.995Z,23.13
2023-01-01T04:50:20.457Z,23.10
2023-01-01T04:50:51.886Z,23.13
2023-01-01T04:51:23.278Z,23.14
2023-01-01T04:51:54.665Z,23.12
2023-01-01T04:52:26.237Z,23.12
2023-01-01T04:52:57.693Z,23.11
2023-01-01T04:53:29.228Z,23.13
2023-01-01T04:54:00.798Z,23.11
2023-01-01T04:54:32.234Z,23.10
2023-01-01T04:55:03.652Z,23.11
2023-01-01T04:55:35.239Z,23.15
2023-01-01T04:56:06.659Z,23.13
2023-01-01T04:56:38.131Z,23.11
2023-01-01T04:57:09.587Z,23.12
2023-01-01T04:57:41.073Z,23.13
2023-01-01T04:58:12.491Z,23.13
2023-01-01T04:58:43.919Z,23.14
2023-01-01T04:59:15.319Z,23.13
2023-01-01T04:59:46.738Z,23.10
2023-01-01T05:00:18.166Z,23.13
2023-01-01T05:00:49.759Z,23.16
2023-01-01T05:01:21.264Z,23.14
2023-01-01T05:01:52.902Z,23.14
2023-01-01T05:02:24.614Z,23.15
2023-01-01T05:02:56.154Z,23.11
2023-01-01T05:03:27.611Z,23.11
2023-01-01T05:03:59.045Z,23.10
2023-01-01T05:04:30.496Z,23.10
2023-01-01T05:05:01.902Z,23.10
2023-01-01T05:05:33.301Z,23.13
2023-01-01T05:06:04.794Z,23.09
2023-01-01T05:06:36.198Z,23.10
2023-01-01T05:07:07.655Z,23.07
2023-01-01T05:07:39.068Z,23.09
2023-01-01T05:08:10.481Z,23.10
2023-01-01T05:08:41.937Z,23.11
2023-01-01T05:09:13.359Z,23.12
2023-01-01T05:09:44.892Z,23.11
2023-01-01T05:10:16.327Z,23.14
2023-01-01T05:10:47.787Z,23.13
2023-01-01T05:11:19.236Z,23.14
2023-01-01T05:11:50.607Z,23.14
2023-01-01T05:12:22.013Z,23.14
2023-01-01T05:12:53.440Z,23.14
2023-01-01T05:13:24.831Z,23.14
2023-01-01T05:13:56.274Z,23.15
2023-01-01T05:14:27.715Z,23.14
2023-01-01T05:14:59.113Z,23.14
2023-01-01T05:15:30.569Z,23.17
2023-01-01T05:16:02.068Z,23.15
2023-01-01T05:16:33.689Z,23.13
2023-01-01T05:17:05.167Z,23.13
2023-01-01T05:17:36.571Z,23.15
2023-01-01T05:18:07.962Z,23.13
2023-01-01T05:18:39.474Z,23.13
2023-01-01T05:19:10.903Z,23.15
2023-01-01T05:19:42.390Z,23.17
2023-01-01T05:20:13.779Z,23.16
2023-01-01T05:20:45.200Z,23.15
2023-01-01T05:21:16.680Z,23.18
2023-01-01T05:21:48.152Z,23.17
2023-01-01T05:22:19.596Z,23.17
2023-01-01T05:22:51.123Z,23.16
2023-01-01T05:23:22.536Z,23.13
2023-01-01T05:23:53.906Z,23.14
2023-01-01T05:24:25.341Z,23.15
2023-01-01T05:24:56.752Z,23.15
2023-01-01T05:25:28.170Z,23.15
2023-01-01T05:25:59.699Z,23.15
2023-01-01T05:26:31.140Z,23.13
2023-01-01T05:27:02.629Z,23.16
2023-01-01T05:27:34.045Z,23.13
2023-01-01T05:28:05.463Z,23.14
2023-01-01T05:28:36.992Z,23.11
2023-01-01T05:29:15.518Z,23.14
2023-01-01T05:29:48.131Z,23.15
2023-01-01T05:30:19.563Z,23.19
2023-01-01T05:30:53.832Z,23.15
2023-01-01T05:31:25.373Z,23.15
2023-01-01T05:31:56.959Z,23.15
2023-01-01T05:32:28.510Z,23.16
2023-01-01T05:32:59.963Z,23.16
2023-01-01T05:33:31.455Z,23.17
2023-01-01T05:35:03.260Z,23.17
2023-01-01T05:35:34.697Z,23.16
2023-01-01T05:36:06.169Z,23.17
2023-01-01T05:36:37.575Z,23.16
2023-01-01T05:37:09.013Z,23.17
2023-01-01T05:37:40.605Z,23.14
2023-01-01T05:38:12.007Z,23.16
2023-01-01T05:38:43.509Z,23.17
2023-01-01T05:39:14.934Z,23.15
2023-01-01T05:39:46.327Z,23.16
2023-01-01T05:40:17.730Z,23.19
2023-01-01T05:40:49.195Z,23.17
2023-01-01T05:41:20.612Z,23.17
2023-01-01T05:41:52.032Z,23.16
2023-01-01T05:42:23.448Z,23.17
2023-01-01T05:42:54.942Z,23.15
2023-01-01T05:43:26.403Z,23.16
2023-01-01T05:43:57.828Z,23.13
2023-01-01T05:44:29.239Z,23.14
2023-01-01T05:45:00.685Z,23.14
2023-01-01T05:45:35.235Z,23.13
2023-01-01T05:46:06.757Z,23.17
2023-01-01T05:46:38.279Z,23.15
2023-01-01T05:47:09.681Z,23.15
2023-01-01T05:47:41.121Z,23.15
2023-01-01T05:48:12.673Z,23.13
2023-01-01T05:48:44.141Z,23.19
2023-01-01T05:49:15.580Z,23.17
2023-01-01T05:49:47.036Z,23.16
2023-01-01T05:50:18.457Z,23.14
2023-01-01T05:50:49.880Z,23.14
2023-01-01T05:51:21.308Z,23.09
2023-01-01T05:51:52.797Z,23.13
2023-01-01T05:52:26.683Z,23.12
2023-01-01T05:52:58.491Z,23.14
2023-01-01T05:53:29.985Z,23.15
2023-01-01T05:54:01.490Z,23.16
2023-01-01T05:54:32.893Z,23.15
2023-01-01T05:55:04.335Z,23.14
2023-01-01T05:55:35.792Z,23.10
2023-01-01T05:56:07.210Z,23.15
2023-01-01T05:56:38.675Z,23.15
2023-01-01T05:57:10.085Z,23.15
2023-01-01T05:57:41.575Z,23.15
2023-01-01T05:58:12.998Z,23.15
2023-01-01T05:58:44.492Z,23.13
2023-01-01T05:59:15.927Z,23.12
2023-01-01T05:59:47.347Z,23.11
2023-01-01T06:00:18.885Z,23.10
2023-01-01T06:00:50.417Z,23.11
2023-01-01T06:01:21.890Z,23.14
2023-01-01T06:01:53.507Z,23.14
2023-01-01T06:02:25.043Z,23.15
2023-01-01T06:02:56.537Z,23.15
2023-01-01T06:03:27.984Z,23.14
2023-01-01T06:03:59.589Z,23.13
2023-01-01T06:04:31.186Z,23.13
2023-01-01T06:05:02.644Z,23.17
2023-01-01T06:05:34.094Z,23.17
2023-01-01T06:06:05.529Z,23.17
2023-01-01T06:06:36.919Z,23.18
2023-01-01T06:07:08.351Z,23.19
2023-01-01T06:07:43.303Z,23.15
2023-01-01T06:08:19.507Z,23.16
2023-01-01T06:08:50.906Z,23.17
2023-01-01T06:09:22.424Z,23.17
2023-01-01T06:09:53.840Z,23.15
2023-01-01T06:10:25.273Z,23.17
2023-01-01T06:10:56.725Z,23.18
2023-01-01T06:11:28.141Z,23.16
2023-01-01T06:11:59.598Z,23.16
2023-01-01T06:12:31.023Z,23.15
2023-01-01T06:13:04.596Z,23.15
2023-01-01T06:13:38.149Z,23.17
2023-01-01T06:14:09.751Z,23.16
2023-01-01T06:14:41.217Z,23.19
2023-01-01T06:15:12.623Z,23.13
2023-01-01T06:15:44.089Z,23.14
2023-01-01T06:16:15.578Z,23.15
2023-01-01T06:16:47.125Z,23.15
2023-01-01T06:17:18.528Z,23.17
2023-01-01T06:17:49.935Z,23.16
2023-01-01T06:18:21.484Z,23.20
2023-01-01T06:18:52.925Z,23.20
2023-01-01T06:19:24.388Z,23.17
2023-01-01T06:19:55.834Z,23.20
2023-01-01T06:20:27.300Z,23.20
2023-01-01T06:20:58.710Z,23.19
2023-01-01T06:21:30.164Z,23.15
2023-01-01T06:22:01.573Z,23.16
2023-01-01T06:22:32.972Z,23.19
2023-01-01T06:23:04.515Z,23.20
2023-01-01T06:23:35.921Z,23.18
2023-01-01T06:24:07.401Z,23.19
2023-01-01T06:24:39.416Z,23.20
2023-01-01T06:25:10.928Z,23.21
2023-01-01T06:25:42.430Z,23.18
2023-01-01T06:26:13.841Z,23.16
2023-01-01T06:26:45.346Z,23.16
2023-01-01T06:27:16.770Z,23.20
2023-01-01T06:27:48.425Z,23.17
2023-01-01T06:28:19.862Z,23.16
2023-01-01T06:28:51.312Z,23.16
2023-01-01T06:29:22.738Z,23.19
2023-01-01T06:29:54.120Z,23.18
2023-01-01T06:30:25.585Z,23.19
2023-01-01T06:30:57.068Z,23.17
2023-01-01T06:31:28.533Z,23.16
2023-01-01T06:32:00.003Z,23.17
2023-01-01T06:32:31.538Z,23.16
2023-01-01T06:33:03.056Z,23.15
2023-01-01T06:33:34.622Z,23.19
2023-01-01T06:34:06.082Z,23.17
2023-01-01T06:34:37.606Z,23.13
2023-01-01T06:35:09.043Z,23.16
2023-01-01T06:35:40.516Z,23.15
2023-01-01T06:36:11.954Z,23.15
2023-01-01T06:36:43.375Z,23.14
2023-01-01T06:37:14.776Z,23.15
2023-01-01T06:37:46.206Z,23.16
2023-01-01T06:38:17.643Z,23.19
2023-01-01T06:38:49.120Z,23.19
2023-01-01T06:39:20.581Z,23.15
2023-01-01T06:39:52.029Z,23.16
2023-01-01T06:40:23.484Z,23.16
2023-01-01T06:40:57.441Z,23.17
2023-01-01T06:41:28.862Z,23.16
2023-01-01T06:42:00.303Z,23.17
2023-01-01T06:42:33.973Z,23.14
2023-01-01T06:43:05.692Z,23.14
2023-01-01T06:43:37.179Z,23.17
2023-01-01T06:44:08.667Z,23.15
2023-01-01T06:44:40.119Z,23.13
2023-01-01T06:45:11.550Z,23.15
2023-01-01T06:45:42.957Z,23.17
2023-01-01T06:46:14.462Z,23.17
2023-01-01T06:46:46.016Z,23.16
2023-01-01T06:47:17.510Z,23.16
2023-01-01T06:47:48.950Z,23.17
2023-01-01T06:48:20.415Z,23.15
2023-01-01T06:48:51.818Z,23.17
2023-01-01T06:49:23.293Z,23.16
2023-01-01T06:49:54.709Z,23.19
2023-01-01T06:50:26.110Z,23.17